Airport Name : Adana

Other Name : Adana

ICAO : LTAF

IATA : ADA

FAA :

Latitude : 36.982166

Longitude : 35.280388

Country : Turkey

Local Date and Time : 26 Feb 2021 12:40

 

TAF (Terminal Aerodrome Forecast)

TAF LTAF 260440Z 2606/2706 VRB02KT CAVOK PROB30 TEMPO 2618/2622 4000 HZ

 

METAR (METeorological Aerodrome Report)

LTAF 260920Z VRB03KT CAVOK 19/M01 Q1021 NOSIG RMK RWY23 24005KT 170V300

LTAF 260850Z VRB01KT CAVOK 19/M02 Q1022 NOSIG RMK RWY23 VRB03KT

LTAF 260820Z 35003KT 270V080 CAVOK 18/M01 Q1022 NOSIG RMK RWY23 34004KT 270V060

LTAF 260750Z 02004KT 310V080 CAVOK 18/M02 Q1022 NOSIG RMK RWY23 04004KT 300V100

LTAF 260720Z 04003KT 300V100 CAVOK 16/M01 Q1022 NOSIG RMK RWY23 05005KT 010V080

LTAF 260650Z 02003KT 300V090 CAVOK 16/M00 Q1022 NOSIG RMK RWY23 06004KT 020V090

LTAF 260620Z VRB02KT CAVOK 13/01 Q1022 NOSIG RMK RWY23 02004KT 270V060

LTAF 260550Z 00000KT CAVOK 12/03 Q1022 NOSIG RMK RWY23 VRB01KT

To Charter a Jet Click here.